Time;durP1;ratioP1;P1;durP2;ratioP2;P2;SDS_P1;SDS_P2;PMS_P1;PMS_P2;Temp;Humidity;BMP_temperature;BMP_pressure;BME280_temperature;BME280_humidity;BME280_pressure;Samples;Min_cycle;Max_cycle;Signal;HPM_P1;HPM_P2
2021/07/27 00:00:49;;;;;;;86.30;77.38;;;29.70;47.40;;;;;;4990304;28;20034;-51
2021/07/27 00:03:14;;;;;;;93.18;84.03;;;29.70;47.40;;;;;;4991793;28;20033;-51
2021/07/27 00:05:40;;;;;;;77.57;69.47;;;29.60;47.20;;;;;;4990178;28;20038;-52
2021/07/27 00:08:07;;;;;;;101.45;91.32;;;29.60;47.30;;;;;;4990862;28;20042;-49
2021/07/27 00:10:35;;;;;;;103.97;93.38;;;29.60;47.20;;;;;;4991081;28;20022;-54
2021/07/27 00:13:02;;;;;;;96.43;86.35;;;29.60;47.30;;;;;;4991475;28;20477;-53
2021/07/27 00:15:27;;;;;;;64.93;58.45;;;29.50;47.30;;;;;;4990774;28;20096;-55
2021/07/27 00:17:54;;;;;;;49.78;44.67;;;29.50;47.30;;;;;;4992135;28;20481;-50
2021/07/27 00:20:20;;;;;;;96.03;86.10;;;29.50;47.20;;;;;;4994616;28;20081;-50
2021/07/27 00:22:46;;;;;;;99.82;89.65;;;29.50;47.00;;;;;;4994544;28;20032;-52
2021/07/27 00:25:14;;;;;;;68.55;61.42;;;29.40;47.20;;;;;;4994737;28;20054;-50
2021/07/27 00:27:40;;;;;;;104.07;93.55;;;29.40;47.10;;;;;;4994111;28;20061;-51
2021/07/27 00:30:07;;;;;;;93.63;84.30;;;29.40;47.30;;;;;;4994533;28;20030;-50
2021/07/27 00:32:36;;;;;;;53.95;48.33;;;29.40;47.40;;;;;;4993551;28;20393;-52
2021/07/27 00:35:04;;;;;;;35.83;32.22;;;29.40;47.60;;;;;;4976942;28;20062;-55
2021/07/27 00:37:33;;;;;;;24.10;20.70;;;29.40;47.60;;;;;;4993109;28;20057;-55
2021/07/27 00:39:59;;;;;;;7.95;6.90;;;29.40;47.50;;;;;;4993306;28;20034;-55
2021/07/27 00:42:26;;;;;;;9.40;8.10;;;29.40;46.90;;;;;;4994205;28;20027;-53
2021/07/27 00:44:55;;;;;;;5.05;3.97;;;29.40;46.90;;;;;;4994392;28;20026;-53
2021/07/27 00:47:20;;;;;;;3.60;3.17;;;29.30;46.90;;;;;;4994488;28;20031;-52
2021/07/27 00:49:47;;;;;;;4.38;3.22;;;29.30;47.00;;;;;;4994484;28;20480;-54
2021/07/27 00:52:12;;;;;;;4.18;2.75;;;29.30;47.30;;;;;;4977314;28;20054;-53
2021/07/27 00:54:38;;;;;;;3.50;2.40;;;29.20;47.30;;;;;;4993991;28;20053;-55
2021/07/27 00:57:04;;;;;;;3.47;2.80;;;29.10;47.30;;;;;;4994438;28;20392;-53
2021/07/27 00:59:30;;;;;;;6.05;5.20;;;29.10;47.50;;;;;;4994431;28;20062;-59
2021/07/27 01:01:56;;;;;;;7.82;2.50;;;29.10;47.80;;;;;;4994103;28;20500;-51
2021/07/27 01:04:22;;;;;;;4.82;2.15;;;29.00;47.80;;;;;;4993879;28;20026;-52
2021/07/27 01:06:49;;;;;;;3.35;2.20;;;29.00;47.80;;;;;;4994075;28;20062;-52
2021/07/27 01:09:15;;;;;;;2.78;2.10;;;29.00;47.80;;;;;;4994408;28;20493;-49
2021/07/27 01:11:41;;;;;;;4.85;2.28;;;29.00;47.80;;;;;;4993482;28;20041;-48
2021/07/27 01:14:08;;;;;;;2.78;1.92;;;29.00;47.90;;;;;;4994377;28;20109;-52
2021/07/27 01:16:35;;;;;;;5.80;2.38;;;29.00;48.00;;;;;;4992999;28;20088;-49
2021/07/27 01:42:03;;;;;;;5.50;2.20;;;28.90;48.20;;;;;;4992966;28;20030;-50
2021/07/27 01:43:43;;;;;;;10.10;3.67;;;28.90;48.40;;;;;;4990754;28;20441;-52
2021/07/27 01:46:10;;;;;;;4.15;3.22;;;28.90;48.40;;;;;;4993915;28;20038;-49
2021/07/27 01:48:36;;;;;;;5.47;4.90;;;28.90;48.30;;;;;;4992777;28;20037;-48
2021/07/27 01:51:05;;;;;;;4.70;3.47;;;28.90;48.30;;;;;;4975482;28;20062;-53
2021/07/27 01:53:44;;;;;;;20.73;18.60;;;28.90;48.40;;;;;;4993230;28;20033;-50
2021/07/27 01:56:10;;;;;;;101.30;91.20;;;28.90;48.40;;;;;;4992898;28;20065;-51
2021/07/27 01:58:35;;;;;;;47.25;40.38;;;28.90;48.30;;;;;;4992906;28;20030;-48
2021/07/27 02:01:01;;;;;;;87.28;75.15;;;28.90;48.40;;;;;;4993207;28;20498;-54
2021/07/27 02:03:27;;;;;;;42.05;35.65;;;28.80;48.50;;;;;;4975519;28;20520;-46
2021/07/27 02:05:53;;;;;;;31.65;27.92;;;28.80;48.50;;;;;;4991338;28;20238;-48
2021/07/27 02:08:18;;;;;;;37.75;32.60;;;28.80;48.50;;;;;;4993227;28;20199;-50
2021/07/27 02:10:49;;;;;;;32.20;28.25;;;28.80;48.50;;;;;;4975348;28;20034;-47
2021/07/27 02:13:25;;;;;;;29.23;25.92;;;28.80;48.50;;;;;;4993150;28;20031;-45
2021/07/27 02:15:51;;;;;;;19.83;15.18;;;28.80;48.50;;;;;;4992620;28;20034;-41
2021/07/27 02:18:17;;;;;;;13.85;11.57;;;28.80;48.50;;;;;;4993051;28;20080;-43
2021/07/27 02:20:48;;;;;;;8.50;6.97;;;28.70;48.60;;;;;;4992175;28;20026;-44
2021/07/27 02:23:14;;;;;;;21.70;19.42;;;28.60;48.70;;;;;;4993424;28;20054;-46
2021/07/27 02:25:40;;;;;;;47.95;37.53;;;28.70;48.80;;;;;;4992625;28;20041;-49
2021/07/27 02:28:11;;;;;;;61.30;52.00;;;28.60;48.70;;;;;;4992891;28;20034;-43
2021/07/27 02:30:40;;;;;;;101.47;73.32;;;28.60;48.80;;;;;;4992410;28;20192;-42
2021/07/27 02:33:07;;;;;;;82.95;70.95;;;28.60;48.90;;;;;;4992875;28;20369;-46
2021/07/27 02:35:32;;;;;;;35.20;26.40;;;28.70;49.10;;;;;;4992463;28;20026;-45
2021/07/27 02:37:58;;;;;;;39.15;32.90;;;28.60;49.20;;;;;;4992129;28;20039;-46
2021/07/27 02:40:42;;;;;;;30.27;18.40;;;28.70;49.00;;;;;;4992382;28;20106;-51
2021/07/27 02:43:10;;;;;;;15.85;10.80;;;28.70;49.10;;;;;;4992444;28;20030;-50
2021/07/27 02:45:36;;;;;;;14.57;9.68;;;28.70;48.70;;;;;;4975019;28;20330;-51
2021/07/27 02:48:03;;;;;;;10.45;6.30;;;28.70;48.70;;;;;;4992547;28;20088;-48
2021/07/27 02:50:29;;;;;;;11.63;10.43;;;28.70;48.70;;;;;;4992643;28;20069;-47
2021/07/27 02:52:55;;;;;;;28.10;24.65;;;28.70;48.60;;;;;;4991897;28;20257;-53
2021/07/27 02:55:20;;;;;;;14.05;12.55;;;28.70;48.70;;;;;;4992180;28;20479;-51
2021/07/27 02:57:50;;;;;;;12.48;9.30;;;28.70;48.80;;;;;;4991917;28;20164;-50
2021/07/27 03:00:16;;;;;;;6.88;4.03;;;28.70;48.80;;;;;;4992651;28;20034;-49
2021/07/27 03:02:44;;;;;;;59.13;45.92;;;28.70;48.80;;;;;;4991710;28;20034;-43
2021/07/27 03:05:12;;;;;;;40.88;32.70;;;28.70;48.90;;;;;;4975156;28;20086;-47
2021/07/27 03:10:21;;;;;;;64.63;55.80;;;28.80;48.70;;;;;;4992393;28;20049;-48
2021/07/27 03:12:51;;;;;;;18.38;15.85;;;28.70;49.40;;;;;;4991730;28;20389;-53
2021/07/27 03:15:19;;;;;;;10.30;8.27;;;28.80;48.70;;;;;;4992317;28;20088;-49
2021/07/27 03:17:45;;;;;;;8.63;6.45;;;28.80;48.70;;;;;;4991542;28;20038;-45
2021/07/27 03:20:13;;;;;;;14.98;13.43;;;28.70;48.50;;;;;;4974826;28;20037;-51
2021/07/27 03:22:42;;;;;;;9.80;8.50;;;28.80;48.60;;;;;;4991560;28;20038;-47
2021/07/27 03:25:09;;;;;;;6.32;5.25;;;28.80;48.50;;;;;;4992425;28;20034;-49
2021/07/27 03:27:36;;;;;;;10.50;4.45;;;28.80;48.40;;;;;;4992204;28;20251;-58
2021/07/27 03:30:03;;;;;;;5.88;4.10;;;28.80;48.60;;;;;;4990547;28;20109;-52
2021/07/27 03:32:28;;;;;;;4.28;3.17;;;28.80;48.60;;;;;;4991941;28;20076;-48
2021/07/27 03:34:54;;;;;;;3.65;2.90;;;28.70;48.30;;;;;;4991241;28;20030;-50
2021/07/27 03:37:19;;;;;;;5.43;2.72;;;28.80;48.40;;;;;;4991731;28;20034;-54
2021/07/27 03:39:47;;;;;;;4.85;2.33;;;28.80;48.30;;;;;;4991210;28;20374;-48
2021/07/27 03:42:13;;;;;;;2.63;2.17;;;28.70;48.10;;;;;;4991456;28;20432;-47
2021/07/27 03:44:39;;;;;;;3.17;2.33;;;28.80;48.30;;;;;;4991935;28;20027;-51
2021/07/27 03:47:04;;;;;;;2.67;2.20;;;28.70;48.30;;;;;;4991943;28;20054;-67
2021/07/27 03:49:30;;;;;;;5.45;4.22;;;28.80;48.20;;;;;;4991697;28;20465;-50
2021/07/27 03:52:00;;;;;;;4.45;3.13;;;28.80;48.30;;;;;;4991522;28;20110;-52
2021/07/27 03:54:29;;;;;;;6.18;3.80;;;28.70;48.30;;;;;;4996188;28;20122;-48
2021/07/27 03:56:55;;;;;;;6.93;5.88;;;28.80;48.40;;;;;;4995105;28;20045;-50
2021/07/27 03:59:20;;;;;;;7.53;3.50;;;28.70;48.30;;;;;;4978062;28;20449;-45
2021/07/27 04:01:46;;;;;;;54.30;46.55;;;28.70;48.30;;;;;;4994909;28;20531;-51
2021/07/27 04:04:12;;;;;;;114.03;100.85;;;28.80;48.50;;;;;;4995633;28;20381;-50
2021/07/27 04:06:38;;;;;;;102.78;90.97;;;28.80;48.50;;;;;;4995083;28;20050;-44
2021/07/27 04:09:04;;;;;;;47.75;39.63;;;28.80;48.50;;;;;;4994989;28;20030;-45
2021/07/27 04:11:29;;;;;;;24.23;21.08;;;28.80;48.50;;;;;;4995546;28;20088;-47
2021/07/27 04:13:55;;;;;;;11.60;9.07;;;28.80;48.50;;;;;;4994273;28;20453;-47
2021/07/27 04:16:21;;;;;;;7.95;7.03;;;28.80;48.50;;;;;;4995288;28;20374;-44
2021/07/27 04:18:51;;;;;;;8.02;5.95;;;28.80;48.50;;;;;;4993181;28;20026;-44
2021/07/27 04:21:17;;;;;;;8.02;4.88;;;28.80;48.50;;;;;;4994816;28;20033;-49
2021/07/27 04:23:43;;;;;;;4.93;4.05;;;28.80;48.40;;;;;;4994780;28;20026;-43
2021/07/27 04:26:08;;;;;;;4.13;3.45;;;28.80;48.30;;;;;;4995437;28;20027;-45
2021/07/27 04:28:34;;;;;;;4.20;3.10;;;28.80;48.20;;;;;;4977662;28;20034;-45
2021/07/27 04:30:59;;;;;;;3.83;2.78;;;28.90;48.20;;;;;;4994392;28;20267;-44
2021/07/27 04:33:28;;;;;;;4.55;2.80;;;28.80;48.10;;;;;;4993857;28;20034;-45
2021/07/27 04:35:54;;;;;;;4.38;2.53;;;28.80;48.10;;;;;;4993780;28;20037;-51
2021/07/27 04:38:23;;;;;;;4.88;2.50;;;28.80;48.00;;;;;;4993661;28;20034;-51
2021/07/27 04:40:53;;;;;;;4.72;2.63;;;28.80;48.20;;;;;;4994272;28;20038;-50
2021/07/27 04:43:19;;;;;;;4.15;2.65;;;28.80;48.20;;;;;;4994695;28;20072;-44
2021/07/27 04:45:44;;;;;;;3.90;2.80;;;28.80;48.10;;;;;;4994260;28;20027;-42
2021/07/27 04:48:10;;;;;;;4.65;2.70;;;28.80;48.10;;;;;;4995251;28;20030;-42
2021/07/27 04:50:44;;;;;;;4.03;2.88;;;28.80;48.10;;;;;;4994838;28;20422;-42
2021/07/27 04:53:10;;;;;;;3.72;2.90;;;28.70;48.10;;;;;;4994402;28;20029;-42
2021/07/27 04:55:37;;;;;;;3.92;2.90;;;28.70;48.10;;;;;;4994030;28;20034;-42
2021/07/27 04:58:03;;;;;;;3.60;2.67;;;28.70;48.20;;;;;;4976668;28;20060;-43
2021/07/27 05:00:29;;;;;;;3.40;2.70;;;28.70;48.20;;;;;;4977237;28;20030;-44
2021/07/27 05:02:57;;;;;;;3.78;3.05;;;28.70;48.10;;;;;;4976206;28;20029;-44
2021/07/27 05:05:23;;;;;;;4.63;3.10;;;28.70;48.10;;;;;;4976995;28;20512;-43
2021/07/27 05:07:49;;;;;;;6.10;3.40;;;28.70;48.10;;;;;;4994059;28;20114;-44
2021/07/27 05:10:19;;;;;;;5.43;3.20;;;28.80;48.10;;;;;;4994150;28;20109;-46
2021/07/27 05:12:44;;;;;;;5.63;3.47;;;28.80;48.10;;;;;;4993630;28;20058;-45
2021/07/27 05:15:11;;;;;;;7.65;3.35;;;28.80;48.00;;;;;;4993772;28;20061;-46
2021/07/27 05:17:38;;;;;;;5.35;3.60;;;28.80;47.90;;;;;;4993527;28;20465;-44
2021/07/27 05:20:04;;;;;;;7.53;3.90;;;28.80;48.00;;;;;;4993220;28;20105;-45
2021/07/27 05:22:30;;;;;;;4.55;3.17;;;28.80;48.00;;;;;;4993511;28;20030;-45
2021/07/27 05:24:56;;;;;;;4.82;3.10;;;28.80;48.00;;;;;;4992477;28;20031;-45
2021/07/27 05:27:24;;;;;;;5.15;3.30;;;28.80;48.10;;;;;;4993709;28;20018;-45
2021/07/27 05:29:53;;;;;;;6.72;3.70;;;28.80;48.10;;;;;;4992776;28;20238;-46
2021/07/27 05:32:32;;;;;;;4.55;3.30;;;28.80;48.00;;;;;;4992836;28;20034;-44
2021/07/27 05:34:58;;;;;;;6.22;3.20;;;28.80;48.00;;;;;;4992540;28;20033;-45
2021/07/27 05:37:24;;;;;;;7.00;3.55;;;28.80;48.00;;;;;;4992925;28;20026;-48
2021/07/27 05:39:49;;;;;;;5.18;3.60;;;28.80;48.10;;;;;;4975593;28;20611;-47
2021/07/27 05:42:16;;;;;;;7.63;3.70;;;28.80;48.00;;;;;;4994095;28;20389;-46
2021/07/27 05:44:42;;;;;;;4.15;3.00;;;28.80;48.10;;;;;;4993456;28;20029;-42
2021/07/27 05:47:08;;;;;;;4.30;3.10;;;28.80;48.10;;;;;;4993129;28;20022;-45
2021/07/27 05:49:35;;;;;;;4.72;3.35;;;28.80;48.10;;;;;;4993567;28;20035;-43
2021/07/27 05:52:01;;;;;;;4.10;2.85;;;28.80;48.00;;;;;;4992855;28;20062;-45
2021/07/27 05:54:28;;;;;;;6.10;3.28;;;28.90;48.00;;;;;;4976026;28;20038;-45
2021/07/27 05:56:54;;;;;;;6.45;3.70;;;28.90;48.00;;;;;;4992633;28;20030;-45
2021/07/27 05:59:20;;;;;;;5.22;3.10;;;28.90;48.00;;;;;;4993422;28;20039;-44
2021/07/27 06:01:47;;;;;;;4.65;3.60;;;29.00;47.90;;;;;;4992462;28;20061;-43
2021/07/27 06:04:13;;;;;;;3.67;3.05;;;29.00;47.80;;;;;;4993513;28;20041;-47
2021/07/27 06:06:39;;;;;;;4.95;3.80;;;29.00;47.70;;;;;;4993267;28;20050;-44
2021/07/27 06:09:06;;;;;;;4.40;3.30;;;29.00;47.70;;;;;;4975226;28;20109;-46
2021/07/27 06:11:51;;;;;;;5.60;3.70;;;29.00;47.50;;;;;;4959568;28;20085;-45
2021/07/27 06:14:16;;;;;;;4.78;3.70;;;29.00;47.60;;;;;;4975252;28;20448;-46
2021/07/27 06:16:42;;;;;;;5.07;3.58;;;29.10;47.40;;;;;;4992819;28;20088;-42
2021/07/27 06:19:08;;;;;;;4.93;3.30;;;29.10;47.40;;;;;;4974497;28;20062;-44
2021/07/27 06:21:38;;;;;;;9.65;3.65;;;29.20;47.50;;;;;;4993123;28;20049;-47
2021/07/27 06:24:04;;;;;;;7.50;3.38;;;29.20;47.50;;;;;;4991970;28;20033;-47
2021/07/27 06:26:30;;;;;;;4.72;3.30;;;29.20;47.40;;;;;;4975351;28;20038;-44
2021/07/27 06:28:56;;;;;;;6.97;3.88;;;29.20;48.10;;;;;;4974674;28;20041;-48
2021/07/27 06:31:21;;;;;;;4.00;3.20;;;29.20;47.40;;;;;;4974935;28;20116;-48
2021/07/27 06:33:47;;;;;;;5.22;3.35;;;29.30;47.50;;;;;;4991995;28;20038;-50
2021/07/27 06:36:13;;;;;;;5.97;3.63;;;29.30;47.30;;;;;;4975265;28;20393;-45
2021/07/27 06:38:40;;;;;;;4.90;3.53;;;29.30;47.20;;;;;;4975114;28;20030;-44
2021/07/27 06:41:10;;;;;;;4.80;3.40;;;29.30;47.10;;;;;;4974384;28;20077;-47
2021/07/27 06:43:37;;;;;;;4.35;3.47;;;29.40;47.20;;;;;;4992510;28;20093;-43
2021/07/27 06:46:04;;;;;;;5.10;3.50;;;29.40;47.20;;;;;;4992108;28;20030;-46
2021/07/27 06:48:29;;;;;;;5.30;3.30;;;29.40;47.00;;;;;;4992534;28;20042;-45
2021/07/27 06:50:55;;;;;;;6.10;3.33;;;29.40;47.00;;;;;;4973857;28;20488;-45
2021/07/27 06:53:21;;;;;;;6.22;3.75;;;29.40;46.80;;;;;;4992968;28;20042;-43
2021/07/27 06:55:47;;;;;;;4.82;3.67;;;29.50;46.70;;;;;;4974133;28;20046;-45
2021/07/27 06:58:13;;;;;;;4.68;3.80;;;29.70;46.50;;;;;;4974773;28;20385;-42
2021/07/27 07:00:39;;;;;;;5.80;3.33;;;29.80;46.00;;;;;;4992139;28;20051;-47
2021/07/27 07:03:08;;;;;;;3.97;3.30;;;30.00;45.70;;;;;;4973903;28;20110;-48
2021/07/27 07:05:35;;;;;;;7.10;3.35;;;30.10;45.30;;;;;;4991871;28;20058;-45
2021/07/27 07:08:02;;;;;;;5.45;3.25;;;30.30;45.00;;;;;;4991175;28;20113;-43
2021/07/27 07:10:27;;;;;;;4.55;3.30;;;30.40;44.70;;;;;;4974849;28;20097;-45
2021/07/27 07:12:53;;;;;;;5.30;3.22;;;30.50;44.50;;;;;;4991405;28;20070;-44
2021/07/27 07:15:19;;;;;;;4.13;3.20;;;30.60;44.90;;;;;;4991705;28;20090;-46
2021/07/27 07:17:45;;;;;;;3.38;2.75;;;30.70;44.10;;;;;;4990902;28;20019;-43
2021/07/27 07:20:11;;;;;;;4.50;3.25;;;30.80;44.00;;;;;;4992024;28;20034;-43
2021/07/27 07:22:37;;;;;;;3.97;3.00;;;30.90;43.90;;;;;;4991524;28;20089;-43
2021/07/27 07:25:03;;;;;;;4.38;3.15;;;31.00;43.70;;;;;;4990683;28;20034;-43
2021/07/27 07:27:29;;;;;;;3.95;3.20;;;31.00;43.30;;;;;;4991851;28;20030;-43
2021/07/27 07:29:56;;;;;;;7.63;3.10;;;31.00;43.20;;;;;;4991082;28;20030;-42
2021/07/27 07:32:22;;;;;;;3.55;3.05;;;31.10;43.10;;;;;;4974381;28;20035;-44
2021/07/27 07:34:48;;;;;;;4.55;3.00;;;31.10;43.20;;;;;;4990811;28;20026;-44
2021/07/27 07:37:14;;;;;;;6.50;3.65;;;31.20;43.10;;;;;;4991788;28;20366;-43
2021/07/27 07:39:40;;;;;;;3.65;2.90;;;31.20;43.00;;;;;;4974331;28;20041;-45
2021/07/27 07:42:07;;;;;;;3.63;3.30;;;31.20;42.90;;;;;;4973251;28;20026;-44
2021/07/27 07:44:33;;;;;;;4.38;3.13;;;31.20;42.90;;;;;;4991537;28;20383;-45
2021/07/27 07:46:59;;;;;;;6.70;3.60;;;31.20;42.90;;;;;;4990975;28;20026;-43
2021/07/27 07:49:26;;;;;;;3.72;3.05;;;31.20;43.00;;;;;;4973971;28;20040;-47
2021/07/27 07:51:53;;;;;;;3.90;3.33;;;31.20;43.10;;;;;;4990838;28;20049;-43
2021/07/27 07:54:19;;;;;;;3.90;3.28;;;31.20;43.00;;;;;;4991676;28;20033;-44
2021/07/27 07:56:45;;;;;;;4.35;3.33;;;31.10;43.10;;;;;;4990307;28;20026;-42
2021/07/27 07:59:12;;;;;;;3.97;3.30;;;31.10;43.20;;;;;;4991327;28;20084;-47
2021/07/27 08:01:38;;;;;;;7.38;3.55;;;31.10;43.30;;;;;;4991414;28;20081;-44
2021/07/27 08:04:05;;;;;;;4.22;3.30;;;31.10;43.40;;;;;;4990344;28;20036;-47
2021/07/27 08:06:31;;;;;;;5.38;3.33;;;31.00;43.60;;;;;;4991337;28;20053;-46
2021/07/27 08:08:57;;;;;;;5.85;3.80;;;31.00;43.60;;;;;;4990511;28;20095;-43
2021/07/27 08:11:26;;;;;;;6.15;3.65;;;31.00;43.70;;;;;;4991466;28;20031;-45
2021/07/27 08:13:55;;;;;;;5.75;3.70;;;31.00;43.80;;;;;;4991168;28;20030;-46
2021/07/27 08:16:20;;;;;;;8.70;3.70;;;30.90;43.90;;;;;;4991628;28;20109;-48
2021/07/27 08:18:46;;;;;;;9.07;3.63;;;30.90;44.00;;;;;;4990178;28;20117;-45
2021/07/27 08:21:12;;;;;;;6.47;4.13;;;30.80;44.00;;;;;;4991173;28;20377;-45
2021/07/27 08:23:40;;;;;;;7.28;3.70;;;30.80;44.10;;;;;;4991245;28;20022;-43
2021/07/27 08:26:06;;;;;;;5.68;3.63;;;30.80;44.20;;;;;;4991332;28;20109;-46
2021/07/27 08:28:32;;;;;;;5.97;3.65;;;30.80;44.40;;;;;;4991122;28;20452;-44
2021/07/27 08:30:58;;;;;;;4.75;3.63;;;30.80;44.50;;;;;;4972770;28;20031;-42
2021/07/27 08:33:24;;;;;;;7.25;3.70;;;30.70;44.40;;;;;;4990571;28;20474;-44
2021/07/27 08:35:51;;;;;;;4.88;4.05;;;30.70;44.40;;;;;;4990589;28;20026;-48
2021/07/27 08:38:17;;;;;;;7.05;4.28;;;30.70;44.50;;;;;;4973566;28;20121;-45
2021/07/27 08:40:46;;;;;;;8.07;4.65;;;30.70;44.50;;;;;;4994058;28;20156;-43
2021/07/27 08:43:13;;;;;;;5.95;3.40;;;30.60;44.50;;;;;;4994765;28;20026;-48
2021/07/27 08:45:38;;;;;;;7.15;3.67;;;30.60;44.50;;;;;;4977104;28;20627;-43
2021/07/27 08:48:23;;;;;;;5.88;4.00;;;30.60;44.60;;;;;;4977033;28;20117;-43
2021/07/27 08:50:50;;;;;;;5.50;3.75;;;30.60;44.60;;;;;;4994746;28;20018;-45
2021/07/27 08:53:16;;;;;;;4.53;3.83;;;30.60;44.70;;;;;;4994926;28;20101;-44
2021/07/27 08:55:42;;;;;;;7.97;4.05;;;30.60;44.60;;;;;;4994826;28;20425;-45
2021/07/27 08:58:08;;;;;;;7.30;3.65;;;30.60;44.80;;;;;;4994345;28;20041;-43
2021/07/27 09:00:34;;;;;;;5.88;3.63;;;30.60;44.90;;;;;;4977223;28;20033;-45
2021/07/27 09:03:08;;;;;;;6.05;4.00;;;30.50;44.40;;;;;;4976644;28;20444;-49
2021/07/27 09:05:33;;;;;;;4.75;3.72;;;30.50;44.60;;;;;;4993841;28;20046;-44
2021/07/27 09:08:03;;;;;;;10.60;4.10;;;30.50;44.60;;;;;;4992981;28;20084;-48
2021/07/27 09:10:30;;;;;;;6.03;4.20;;;30.60;44.70;;;;;;4994347;28;20030;-46
2021/07/27 09:13:17;;;;;;;8.05;3.80;;;30.50;44.80;;;;;;4993229;28;20121;-45
2021/07/27 09:15:45;;;;;;;7.72;4.00;;;30.50;44.80;;;;;;4993593;28;20018;-45
2021/07/27 09:18:15;;;;;;;5.57;3.90;;;30.60;44.70;;;;;;4993639;28;20026;-48
2021/07/27 09:20:49;;;;;;;4.82;3.80;;;30.60;44.70;;;;;;4994268;28;20027;-46
2021/07/27 09:23:19;;;;;;;6.50;4.00;;;30.50;44.70;;;;;;4994345;28;20097;-45
2021/07/27 09:25:49;;;;;;;5.90;4.10;;;30.60;45.00;;;;;;4975561;28;20023;-43
2021/07/27 09:28:16;;;;;;;5.55;4.18;;;30.60;44.90;;;;;;4994036;28;20061;-45
2021/07/27 09:30:44;;;;;;;7.13;4.00;;;30.60;44.90;;;;;;4994033;28;20025;-42
2021/07/27 09:33:13;;;;;;;6.63;4.35;;;30.60;44.90;;;;;;4989922;28;20195;-42
2021/07/27 09:35:39;;;;;;;8.80;4.30;;;30.60;45.00;;;;;;4975303;28;20030;-44
2021/07/27 09:38:13;;;;;;;9.50;4.13;;;30.60;45.00;;;;;;4988046;28;20080;-45
2021/07/27 09:40:51;;;;;;;6.57;4.15;;;30.60;45.20;;;;;;4968768;28;20109;-44
2021/07/27 09:43:18;;;;;;;9.68;4.40;;;30.60;45.10;;;;;;4973871;28;20343;-42
2021/07/27 09:45:47;;;;;;;6.40;4.00;;;30.60;45.00;;;;;;4991412;28;20097;-42
2021/07/27 09:48:15;;;;;;;5.22;3.75;;;30.60;45.00;;;;;;4991331;28;20084;-43
2021/07/27 09:50:40;;;;;;;6.40;4.30;;;30.60;44.90;;;;;;4972969;28;20114;-43
2021/07/27 09:53:06;;;;;;;8.15;4.90;;;30.60;44.60;;;;;;4988911;28;20105;-46
2021/07/27 09:55:36;;;;;;;5.25;4.20;;;30.60;44.60;;;;;;4971469;28;20076;-41
2021/07/27 09:58:02;;;;;;;13.30;4.50;;;30.60;44.70;;;;;;4972821;28;20520;-44
2021/07/27 10:00:28;;;;;;;17.55;5.13;;;30.60;44.80;;;;;;4985034;28;20077;-46
2021/07/27 10:02:55;;;;;;;14.68;5.43;;;30.60;44.90;;;;;;4987516;28;20104;-46
2021/07/27 10:05:23;;;;;;;9.07;4.68;;;30.60;44.90;;;;;;4986342;28;20058;-42
2021/07/27 10:07:57;;;;;;;8.98;4.60;;;30.60;44.90;;;;;;4969113;28;20112;-45
2021/07/27 10:10:39;;;;;;;8.02;5.13;;;30.60;44.60;;;;;;4991356;28;20041;-44
2021/07/27 10:13:07;;;;;;;6.25;4.78;;;30.60;44.80;;;;;;4989173;28;20270;-43
2021/07/27 10:15:43;;;;;;;9.43;4.88;;;30.60;44.70;;;;;;4991275;28;20026;-44
2021/07/27 10:18:09;;;;;;;9.63;5.43;;;30.60;44.30;;;;;;4990339;28;20200;-48
2021/07/27 10:20:36;;;;;;;8.80;5.15;;;30.60;44.60;;;;;;4967882;28;20034;-44
2021/07/27 10:23:18;;;;;;;8.00;5.20;;;30.60;44.50;;;;;;4985848;28;20037;-44
2021/07/27 10:25:54;;;;;;;9.27;5.00;;;30.60;44.50;;;;;;4990564;28;20438;-44
2021/07/27 10:28:24;;;;;;;6.38;4.97;;;30.60;44.50;;;;;;4974174;28;20030;-45
2021/07/27 10:31:05;;;;;;;10.70;4.82;;;30.60;44.50;;;;;;4973961;28;20109;-46
2021/07/27 10:33:31;;;;;;;7.47;4.72;;;30.60;44.60;;;;;;4975542;28;20030;-46
2021/07/27 10:35:57;;;;;;;12.65;5.22;;;30.60;44.50;;;;;;4991601;28;20030;-46
2021/07/27 10:38:35;;;;;;;9.80;4.60;;;30.70;44.70;;;;;;4991631;28;20041;-44
2021/07/27 10:41:11;;;;;;;6.95;4.70;;;30.70;44.80;;;;;;4990833;28;20038;-43
2021/07/27 10:43:37;;;;;;;11.13;4.75;;;30.80;44.30;;;;;;4991772;28;20037;-50
2021/07/27 10:46:04;;;;;;;6.72;4.68;;;30.70;44.40;;;;;;4973635;28;20022;-43
2021/07/27 10:48:36;;;;;;;9.02;5.18;;;30.70;44.50;;;;;;4974354;28;20264;-43
2021/07/27 10:51:02;;;;;;;7.88;4.55;;;30.70;44.20;;;;;;4991639;28;20193;-44
2021/07/27 10:53:33;;;;;;;6.95;4.55;;;30.70;44.10;;;;;;4992448;28;20058;-46
2021/07/27 10:56:10;;;;;;;7.95;4.38;;;30.60;44.10;;;;;;4974109;28;20030;-43
2021/07/27 10:58:36;;;;;;;6.13;4.38;;;30.70;44.40;;;;;;4992261;28;20080;-44
2021/07/27 11:01:09;;;;;;;9.70;4.63;;;30.70;44.30;;;;;;4991349;28;20026;-45
2021/07/27 11:03:36;;;;;;;6.63;4.45;;;30.70;44.30;;;;;;4991773;28;20023;-42
2021/07/27 11:06:03;;;;;;;7.55;4.80;;;30.70;44.20;;;;;;4991063;28;20174;-43
2021/07/27 11:08:30;;;;;;;7.68;4.68;;;30.70;43.90;;;;;;4974226;28;20035;-44
2021/07/27 11:11:09;;;;;;;8.00;4.80;;;30.70;44.20;;;;;;4973674;28;20101;-42
2021/07/27 11:13:36;;;;;;;7.45;4.40;;;30.70;43.80;;;;;;4988348;28;20065;-45
2021/07/27 11:16:02;;;;;;;8.98;4.90;;;30.70;43.60;;;;;;4972289;28;20091;-48
2021/07/27 11:18:29;;;;;;;7.13;4.70;;;30.70;43.80;;;;;;4973748;28;20026;-48
2021/07/27 11:20:56;;;;;;;9.25;4.43;;;30.70;43.90;;;;;;4990144;28;20493;-44
2021/07/27 11:23:23;;;;;;;9.98;4.72;;;30.80;43.40;;;;;;4973426;28;20026;-45
2021/07/27 11:25:57;;;;;;;5.97;4.25;;;30.70;43.30;;;;;;4989880;28;20109;-44
2021/07/27 11:28:34;;;;;;;7.78;4.88;;;30.70;43.50;;;;;;4990942;28;20113;-48
2021/07/27 11:31:00;;;;;;;9.02;4.90;;;30.70;43.30;;;;;;4990705;28;20030;-46
2021/07/27 11:33:26;;;;;;;13.95;4.57;;;30.80;43.40;;;;;;4991005;28;20438;-48
2021/07/27 11:35:53;;;;;;;8.75;4.78;;;30.80;43.30;;;;;;4973957;28;20461;-44
2021/07/27 11:38:23;;;;;;;7.47;4.72;;;30.90;43.40;;;;;;4989951;28;20093;-45
2021/07/27 11:41:01;;;;;;;7.85;4.65;;;30.90;43.40;;;;;;4981449;28;20466;-43
2021/07/27 11:43:32;;;;;;;8.98;4.60;;;30.90;43.30;;;;;;4990149;28;20030;-46
2021/07/27 11:46:08;;;;;;;9.07;4.28;;;30.90;43.00;;;;;;4973697;28;20129;-48
2021/07/27 11:48:35;;;;;;;6.57;4.65;;;30.90;42.80;;;;;;4990772;28;20371;-49
2021/07/27 11:53:54;;;;;;;8.20;4.78;;;30.90;42.90;;;;;;4989954;28;20138;-47
2021/07/27 11:56:20;;;;;;;;;;;31.00;43.00;;;;;;4988966;28;20041;-44
2021/07/27 11:58:49;;;;;;;8.32;4.55;;;31.10;43.80;;;;;;4973301;28;19910;-46
2021/07/27 12:01:15;;;;;;;5.97;4.25;;;31.10;43.00;;;;;;4991030;28;20474;-44
2021/07/27 12:03:41;;;;;;;7.00;4.55;;;31.10;43.00;;;;;;4991148;28;20092;-44
2021/07/27 12:06:11;;;;;;;8.52;4.40;;;31.10;43.10;;;;;;4990960;28;20062;-44
2021/07/27 12:08:37;;;;;;;7.88;4.80;;;31.00;43.10;;;;;;4973678;28;20026;-47
2021/07/27 12:11:03;;;;;;;6.90;4.65;;;31.10;43.20;;;;;;4973006;28;20138;-51
2021/07/27 12:13:29;;;;;;;5.97;4.75;;;31.00;43.10;;;;;;4973540;28;20489;-47
2021/07/27 12:15:55;;;;;;;6.00;4.20;;;31.00;43.20;;;;;;4993822;28;20470;-45
2021/07/27 12:18:21;;;;;;;7.25;4.85;;;31.00;43.20;;;;;;4994193;28;20038;-45
2021/07/27 12:20:47;;;;;;;7.93;4.13;;;31.00;43.30;;;;;;4976986;28;20081;-48
2021/07/27 12:23:17;;;;;;;8.18;4.97;;;31.00;43.40;;;;;;4994228;28;20022;-49
2021/07/27 12:25:43;;;;;;;6.88;4.75;;;31.10;43.60;;;;;;4994876;28;20046;-47
2021/07/27 12:28:09;;;;;;;10.65;5.10;;;31.00;43.50;;;;;;4976953;28;20046;-45
2021/07/27 12:30:35;;;;;;;13.02;4.60;;;31.10;43.70;;;;;;4994696;28;20470;-45
2021/07/27 12:33:00;;;;;;;9.48;5.40;;;31.10;43.80;;;;;;4976719;28;20026;-47
2021/07/27 12:35:26;;;;;;;10.57;5.13;;;31.10;43.80;;;;;;4994771;28;20054;-46
2021/07/27 12:37:52;;;;;;;13.05;4.97;;;31.10;43.70;;;;;;4976879;28;20466;-47
2021/07/27 12:40:18;;;;;;;9.18;4.93;;;31.10;43.70;;;;;;4977100;28;20030;-51
2021/07/27 12:42:44;;;;;;;8.10;4.43;;;31.10;43.80;;;;;;4977189;28;20385;-45
2021/07/27 12:45:10;;;;;;;11.82;4.90;;;31.10;43.70;;;;;;4994084;28;20030;-46
2021/07/27 12:47:37;;;;;;;9.30;4.80;;;31.10;43.70;;;;;;4977064;28;20498;-49
2021/07/27 12:50:05;;;;;;;7.57;4.70;;;31.10;43.80;;;;;;4976508;28;20076;-51
2021/07/27 12:52:31;;;;;;;8.65;5.10;;;31.10;43.70;;;;;;4976796;28;20027;-47
2021/07/27 12:54:56;;;;;;;9.15;4.70;;;31.10;43.70;;;;;;4993382;28;20023;-45
2021/07/27 12:57:22;;;;;;;11.15;5.53;;;31.10;43.70;;;;;;4977017;28;20393;-49
2021/07/27 12:59:49;;;;;;;9.20;4.88;;;31.20;43.80;;;;;;4994404;28;20030;-46
2021/07/27 13:02:18;;;;;;;12.60;4.88;;;31.10;43.70;;;;;;4976401;28;20110;-47
2021/07/27 13:04:44;;;;;;;8.82;4.93;;;31.10;43.80;;;;;;4976393;28;20130;-46
2021/07/27 13:07:11;;;;;;;11.77;5.30;;;31.20;43.80;;;;;;4992494;28;20030;-45
2021/07/27 13:09:37;;;;;;;9.70;4.97;;;31.20;43.70;;;;;;4992963;28;20039;-48
2021/07/27 13:12:03;;;;;;;7.30;4.47;;;31.20;43.50;;;;;;4975192;28;20026;-45